createdAt,value
2019-05-05T00:00:30.679Z,99496.48
2019-05-05T00:03:14.659Z,99501.57
2019-05-05T00:05:46.215Z,99510.28
2019-05-05T00:08:18.084Z,99509.28
2019-05-05T00:11:09.380Z,99526.17
2019-05-05T00:13:50.252Z,99523.52
2019-05-05T00:16:47.226Z,99528.02
2019-05-05T00:19:29.842Z,99534.81
2019-05-05T00:21:52.736Z,99534.28
2019-05-05T00:24:25.606Z,99538.36
2019-05-05T00:26:57.760Z,99538.20
2019-05-05T00:29:29.645Z,99542.56
2019-05-05T00:32:01.521Z,99551.23
2019-05-05T00:34:35.007Z,99553.47
2019-05-05T00:37:07.254Z,99557.77
2019-05-05T00:39:39.047Z,99556.19
2019-05-05T00:42:11.286Z,99554.92
2019-05-05T00:44:44.691Z,99554.38
2019-05-05T00:47:50.916Z,99554.19
2019-05-05T00:50:25.253Z,99550.13
2019-05-05T00:52:57.642Z,99551.81
2019-05-05T00:55:29.426Z,99553.55
2019-05-05T00:58:01.453Z,99558.35
2019-05-05T01:00:52.118Z,99558.14
2019-05-05T01:03:26.802Z,99564.57
2019-05-05T01:06:07.830Z,99576.14
2019-05-05T01:08:39.924Z,99583.34
2019-05-05T01:11:14.334Z,99591.38
2019-05-05T01:13:45.846Z,99594.68
2019-05-05T01:16:17.676Z,99598.77
2019-05-05T01:18:49.409Z,99604.66
2019-05-05T01:21:21.199Z,99614.64
2019-05-05T01:23:54.863Z,99621.27
2019-05-05T01:26:26.718Z,99633.03
2019-05-05T01:28:58.551Z,99640.51
2019-05-05T01:31:30.424Z,99637.72
2019-05-05T01:34:24.530Z,99634.90
2019-05-05T01:37:04.774Z,99638.56
2019-05-05T01:39:54.257Z,99641.63
2019-05-05T01:42:26.303Z,99645.63
2019-05-05T01:44:58.093Z,99642.02
2019-05-05T01:47:29.870Z,99647.23
2019-05-05T01:50:15.191Z,99643.78
2019-05-05T01:52:35.388Z,99646.77
2019-05-05T01:55:07.492Z,99646.38
2019-05-05T01:57:40.048Z,99642.02
2019-05-05T02:00:12.223Z,99643.89
2019-05-05T02:02:45.000Z,99647.89
2019-05-05T02:05:18.207Z,99648.06
2019-05-05T02:07:49.953Z,99648.55
2019-05-05T02:10:22.737Z,99647.72
2019-05-05T02:12:55.201Z,99645.67
2019-05-05T02:15:28.834Z,99646.77
2019-05-05T02:18:00.610Z,99650.50
2019-05-05T02:21:05.936Z,99652.55
2019-05-05T02:23:38.767Z,99648.36
2019-05-05T02:26:11.096Z,99644.53
2019-05-05T02:28:59.077Z,99655.54
2019-05-05T02:31:41.343Z,99658.06
2019-05-05T02:34:16.293Z,99658.81
2019-05-05T02:36:46.805Z,99667.39
2019-05-05T02:39:18.534Z,99676.88
2019-05-05T02:41:51.138Z,99682.28
2019-05-05T02:44:25.521Z,99676.05
2019-05-05T02:47:08.699Z,99682.31
2019-05-05T02:49:45.362Z,99682.13
2019-05-05T02:52:19.642Z,99684.44
2019-05-05T02:54:53.626Z,99688.54
2019-05-05T02:57:27.422Z,99696.37
2019-05-05T03:00:05.122Z,99698.98
2019-05-05T03:02:38.800Z,99697.27
2019-05-05T03:05:14.282Z,99693.55
2019-05-05T03:07:46.506Z,99686.84
2019-05-05T03:10:18.450Z,99692.06
2019-05-05T03:12:51.266Z,99700.27
2019-05-05T03:15:46.940Z,99709.58
2019-05-05T03:18:19.454Z,99713.02
2019-05-05T03:21:03.946Z,99716.13
2019-05-05T03:23:25.948Z,99729.09
2019-05-05T03:25:57.911Z,99738.05
2019-05-05T03:28:40.936Z,99738.52
2019-05-05T03:31:16.071Z,99742.29
2019-05-05T03:33:48.241Z,99750.73
2019-05-05T03:36:21.179Z,99753.66
2019-05-05T03:38:55.233Z,99756.06
2019-05-05T03:41:36.075Z,99759.45
2019-05-05T03:44:29.805Z,99765.33
2019-05-05T03:47:03.559Z,99775.84
2019-05-05T03:49:36.173Z,99780.92
2019-05-05T03:52:08.300Z,99783.41
2019-05-05T03:54:40.833Z,99783.20
2019-05-05T03:57:14.095Z,99786.42
2019-05-05T03:59:47.941Z,99793.69
2019-05-05T04:02:28.636Z,99795.55
2019-05-05T04:05:07.964Z,99806.86
2019-05-05T04:07:40.994Z,99810.16
2019-05-05T04:10:14.121Z,99815.88
2019-05-05T04:12:47.526Z,99819.55
2019-05-05T04:15:19.573Z,99829.18
2019-05-05T04:18:00.223Z,99831.13
2019-05-05T04:20:38.037Z,99829.12
2019-05-05T04:23:10.088Z,99835.05
2019-05-05T04:25:43.871Z,99834.58
2019-05-05T04:28:15.358Z,99837.97
2019-05-05T04:30:47.315Z,99850.38
2019-05-05T04:33:19.098Z,99855.54
2019-05-05T04:35:51.140Z,99858.36
2019-05-05T04:38:24.319Z,99868.31
2019-05-05T04:40:56.720Z,99872.70
2019-05-05T04:43:28.528Z,99869.03
2019-05-05T04:46:00.345Z,99876.53
2019-05-05T04:48:46.944Z,99888.82
2019-05-05T04:51:24.494Z,99890.20
2019-05-05T04:54:14.235Z,99881.52
2019-05-05T04:56:46.588Z,99887.28
2019-05-05T04:59:18.356Z,99900.47
2019-05-05T05:01:54.477Z,99902.02
2019-05-05T05:04:38.628Z,99908.30
2019-05-05T05:07:10.468Z,99908.73
2019-05-05T05:09:43.462Z,99910.27
2019-05-05T05:12:15.567Z,99908.42
2019-05-05T05:14:47.400Z,99910.83
2019-05-05T05:17:26.174Z,99915.73
2019-05-05T05:19:57.965Z,99920.33
2019-05-05T05:22:29.982Z,99920.40
2019-05-05T05:25:04.313Z,99927.00
2019-05-05T05:27:35.748Z,99932.66
2019-05-05T05:30:07.957Z,99940.12
2019-05-05T05:32:40.090Z,99949.57
2019-05-05T05:35:13.930Z,99955.22
2019-05-05T05:37:46.674Z,99964.87
2019-05-05T05:40:24.322Z,99970.20
2019-05-05T05:42:57.977Z,99974.39
2019-05-05T05:45:43.691Z,99974.34
2019-05-05T05:48:28.729Z,99978.59
2019-05-05T05:51:04.174Z,99972.58
2019-05-05T05:53:36.408Z,99977.84
2019-05-05T05:56:08.272Z,99980.84
2019-05-05T05:58:40.141Z,99975.66
2019-05-05T06:01:11.862Z,99985.94
2019-05-05T06:03:44.338Z,99993.50
2019-05-05T06:06:16.365Z,99995.06
2019-05-05T06:08:48.219Z,99998.54
2019-05-05T06:11:20.420Z,100000.27
2019-05-05T06:13:54.385Z,100005.08
2019-05-05T06:16:26.231Z,100002.19
2019-05-05T06:18:58.092Z,100008.88
2019-05-05T06:21:29.844Z,100018.22
2019-05-05T06:24:01.645Z,100018.20
2019-05-05T06:26:34.567Z,100025.58
2019-05-05T06:29:07.753Z,100028.58
2019-05-05T06:31:39.615Z,100029.98
2019-05-05T06:34:13.848Z,100034.89
2019-05-05T06:36:45.177Z,100031.38
2019-05-05T06:39:17.140Z,100043.41
2019-05-05T06:41:58.659Z,100039.15
2019-05-05T06:44:44.209Z,100041.77
2019-05-05T06:47:19.299Z,100047.48
2019-05-05T06:49:51.160Z,100052.62
2019-05-05T06:52:24.722Z,100048.62
2019-05-05T06:54:56.476Z,100044.78
2019-05-05T06:57:28.254Z,100043.56
2019-05-05T07:00:00.180Z,100041.90
2019-05-05T07:02:34.170Z,100047.96
2019-05-05T07:05:05.981Z,100048.62
2019-05-05T07:07:37.754Z,100047.13
2019-05-05T07:10:09.816Z,100055.00
2019-05-05T07:12:43.823Z,100054.08
2019-05-05T07:15:15.345Z,100058.30
2019-05-05T07:17:47.199Z,100065.86
2019-05-05T07:20:19.012Z,100066.58
2019-05-05T07:23:01.491Z,100073.11
2019-05-05T07:25:24.725Z,100072.75
2019-05-05T07:27:56.652Z,100074.70
2019-05-05T07:30:29.705Z,100076.46
2019-05-05T07:33:01.542Z,100081.35
2019-05-05T07:35:56.130Z,100079.83
2019-05-05T07:38:15.767Z,100085.21
2019-05-05T07:40:47.878Z,100081.28
2019-05-05T07:43:19.656Z,100087.61
2019-05-05T07:45:53.874Z,100091.90
2019-05-05T07:48:25.032Z,100099.63
2019-05-05T07:51:01.494Z,100101.10
2019-05-05T07:53:33.541Z,100100.81
2019-05-05T07:56:07.622Z,100109.13
2019-05-05T07:58:39.114Z,100103.97
2019-05-05T08:01:11.067Z,100104.41
2019-05-05T08:03:44.630Z,100099.84
2019-05-05T08:06:16.390Z,100106.12
2019-05-05T08:08:48.186Z,100106.13
2019-05-05T08:11:20.454Z,100108.36
2019-05-05T08:13:52.200Z,100117.05
2019-05-05T08:16:40.449Z,100121.82
2019-05-05T08:19:30.079Z,100122.61
2019-05-05T08:22:03.682Z,100128.82
2019-05-05T08:25:06.942Z,100137.94
2019-05-05T08:27:57.040Z,100140.97
2019-05-05T08:30:41.406Z,100133.38
2019-05-05T08:33:14.077Z,100131.09
2019-05-05T08:35:46.158Z,100138.50
2019-05-05T08:38:18.291Z,100137.53
2019-05-05T08:40:50.259Z,100135.05
2019-05-05T08:43:24.144Z,100136.70
2019-05-05T08:45:55.883Z,100138.72
2019-05-05T08:48:27.708Z,100141.98
2019-05-05T08:50:59.508Z,100141.07
2019-05-05T08:53:42.496Z,100156.66
2019-05-05T08:56:05.244Z,100155.52
2019-05-05T08:58:37.580Z,100160.08
2019-05-05T09:01:09.364Z,100161.42
2019-05-05T09:03:41.515Z,100168.08
2019-05-05T09:06:13.837Z,100169.73
2019-05-05T09:08:46.039Z,100163.94
2019-05-05T09:11:17.821Z,100161.91
2019-05-05T09:13:50.492Z,100161.80
2019-05-05T09:16:24.115Z,100162.08
2019-05-05T09:19:09.672Z,100149.22
2019-05-05T09:21:41.697Z,100143.62
2019-05-05T09:24:41.771Z,100134.55
2019-05-05T09:27:47.499Z,100134.18
2019-05-05T09:30:25.939Z,100150.20
2019-05-05T09:32:57.871Z,100152.96
2019-05-05T09:35:29.766Z,100145.80
2019-05-05T09:38:03.982Z,100142.30
2019-05-05T09:40:43.798Z,100140.05
2019-05-05T09:43:15.227Z,100139.13
2019-05-05T09:45:47.452Z,100138.67
2019-05-05T09:48:19.327Z,100146.44
2019-05-05T09:50:51.230Z,100147.24
2019-05-05T09:53:23.764Z,100154.27
2019-05-05T09:55:56.825Z,100155.60
2019-05-05T09:58:28.660Z,100153.28
2019-05-05T10:01:00.769Z,100155.25
2019-05-05T10:03:34.058Z,100164.83
2019-05-05T10:06:06.131Z,100162.92
2019-05-05T10:08:38.008Z,100167.01
2019-05-05T10:11:10.063Z,100166.36
2019-05-05T10:13:44.135Z,100160.83
2019-05-05T10:16:16.254Z,100166.19
2019-05-05T10:18:48.365Z,100162.59
2019-05-05T10:21:20.599Z,100166.55
2019-05-05T10:23:54.151Z,100165.74
2019-05-05T10:26:26.462Z,100171.45
2019-05-05T10:29:01.131Z,100166.08
2019-05-05T10:31:32.225Z,100173.11
2019-05-05T10:34:06.000Z,100172.18
2019-05-05T10:36:39.136Z,100174.08
2019-05-05T10:39:17.311Z,100180.63
2019-05-05T10:41:49.255Z,100179.73
2019-05-05T10:44:21.024Z,100189.73
2019-05-05T10:46:53.953Z,100185.99
2019-05-05T10:49:25.981Z,100183.36
2019-05-05T10:51:58.086Z,100183.36
2019-05-05T10:54:43.203Z,100184.67
2019-05-05T10:57:04.013Z,100195.94
2019-05-05T10:59:36.154Z,100204.11
2019-05-05T11:02:08.800Z,100211.73
2019-05-05T11:04:40.667Z,100210.66
2019-05-05T11:07:14.534Z,100213.55
2019-05-05T11:09:46.353Z,100206.62
2019-05-05T11:12:18.825Z,100210.80
2019-05-05T11:14:50.678Z,100212.01
2019-05-05T11:17:24.836Z,100209.00
2019-05-05T11:19:56.648Z,100215.22
2019-05-05T11:22:28.687Z,100218.27
2019-05-05T11:25:01.270Z,100214.95
2019-05-05T11:27:34.524Z,100219.52
2019-05-05T11:30:17.801Z,100213.58
2019-05-05T11:33:07.946Z,100213.44
2019-05-05T11:35:49.442Z,100224.61
2019-05-05T11:38:21.744Z,100219.44
2019-05-05T11:40:54.633Z,100221.36
2019-05-05T11:43:27.028Z,100221.83
2019-05-05T11:45:59.035Z,100227.25
2019-05-05T11:48:31.224Z,100227.14
2019-05-05T11:51:04.508Z,100229.39
2019-05-05T11:53:38.031Z,100224.34
2019-05-05T11:56:09.888Z,100225.41
2019-05-05T11:58:44.041Z,100221.51
2019-05-05T12:01:15.477Z,100226.06
2019-05-05T12:03:48.157Z,100224.09
2019-05-05T12:06:20.043Z,100226.86
2019-05-05T12:08:52.417Z,100224.81
2019-05-05T12:11:24.324Z,100215.29
2019-05-05T12:13:56.621Z,100223.73
2019-05-05T12:16:34.705Z,100231.86
2019-05-05T12:19:13.558Z,100234.00
2019-05-05T12:21:45.115Z,100231.19
2019-05-05T12:24:24.808Z,100230.66
2019-05-05T12:27:13.995Z,100240.57
2019-05-05T12:29:50.600Z,100222.73
2019-05-05T12:32:24.132Z,100226.70
2019-05-05T12:34:56.608Z,100229.63
2019-05-05T12:37:28.648Z,100226.45
2019-05-05T12:40:00.679Z,100237.86
2019-05-05T12:42:32.723Z,100231.16
2019-05-05T12:45:08.034Z,100230.63
2019-05-05T12:47:58.200Z,100237.67
2019-05-05T12:50:30.410Z,100239.92
2019-05-05T12:53:04.050Z,100232.06
2019-05-05T12:55:41.494Z,100234.61
2019-05-05T12:58:10.313Z,100219.13
2019-05-05T13:00:44.972Z,100217.53
2019-05-05T13:03:17.175Z,100224.98
2019-05-05T13:05:49.377Z,100226.76
2019-05-05T13:08:23.452Z,100228.04
2019-05-05T13:10:55.792Z,100221.42
2019-05-05T13:13:27.819Z,100219.56
2019-05-05T13:16:00.023Z,100220.67
2019-05-05T13:18:33.970Z,100213.39
2019-05-05T13:21:15.697Z,100218.19
2019-05-05T13:23:59.890Z,100214.25
2019-05-05T13:26:41.385Z,100211.91
2019-05-05T13:29:13.960Z,100228.70
2019-05-05T13:31:46.461Z,100214.44
2019-05-05T13:34:18.457Z,100221.86
2019-05-05T13:36:50.452Z,100218.49
2019-05-05T13:39:24.577Z,100212.30
2019-05-05T13:41:56.434Z,100202.47
2019-05-05T13:44:47.192Z,100211.61
2019-05-05T13:47:19.399Z,100200.49
2019-05-05T13:49:51.400Z,100219.05
2019-05-05T13:52:24.507Z,100209.97
2019-05-05T13:54:56.446Z,100218.50
2019-05-05T13:57:28.482Z,100211.67
2019-05-05T14:00:03.658Z,100218.88
2019-05-05T14:02:37.067Z,100223.27
2019-05-05T14:05:09.435Z,100227.93
2019-05-05T14:07:43.676Z,100227.80
2019-05-05T14:10:15.719Z,100234.09
2019-05-05T14:12:47.617Z,100227.92
2019-05-05T14:15:20.914Z,100220.16
2019-05-05T14:17:54.374Z,100220.91
2019-05-05T14:20:26.683Z,100223.97
2019-05-05T14:22:58.836Z,100230.11
2019-05-05T14:25:31.865Z,100223.84
2019-05-05T14:28:03.999Z,100222.77
2019-05-05T14:30:54.234Z,100218.30
2019-05-05T14:33:34.112Z,100221.09
2019-05-05T14:36:14.150Z,100215.70
2019-05-05T14:38:53.788Z,100218.42
2019-05-05T14:41:25.568Z,100211.92
2019-05-05T14:43:57.604Z,100215.66
2019-05-05T14:46:29.373Z,100204.60
2019-05-05T14:49:01.232Z,100217.08
2019-05-05T14:51:34.211Z,100217.27
2019-05-05T14:54:06.898Z,100209.18
2019-05-05T14:56:38.675Z,100211.27
2019-05-05T14:59:10.637Z,100212.78
2019-05-05T15:01:44.532Z,100219.70
2019-05-05T15:04:17.960Z,100213.13
2019-05-05T15:07:17.518Z,100216.92
2019-05-05T15:10:08.353Z,100211.05
2019-05-05T15:12:44.697Z,100209.99
2019-05-05T15:15:17.607Z,100206.63
2019-05-05T15:17:49.505Z,100207.52
2019-05-05T15:20:21.723Z,100216.16
2019-05-05T15:22:54.128Z,100214.78
2019-05-05T15:25:26.971Z,100213.95
2019-05-05T15:27:58.879Z,100217.30
2019-05-05T15:30:31.106Z,100221.14
2019-05-05T15:33:04.635Z,100214.17
2019-05-05T15:35:36.888Z,100220.84
2019-05-05T15:38:08.750Z,100210.58
2019-05-05T15:40:40.905Z,100212.48
2019-05-05T15:43:14.275Z,100215.17
2019-05-05T15:45:47.510Z,100215.47
2019-05-05T15:48:19.401Z,100217.28
2019-05-05T15:50:51.349Z,100217.38
2019-05-05T15:53:23.518Z,100214.86
2019-05-05T15:55:56.092Z,100213.75
2019-05-05T15:58:27.906Z,100211.55
2019-05-05T16:00:59.870Z,100211.77
2019-05-05T16:03:31.680Z,100216.73
2019-05-05T16:06:03.920Z,100214.05
2019-05-05T16:08:36.290Z,100209.78
2019-05-05T16:11:08.548Z,100207.75
2019-05-05T16:13:40.706Z,100215.84
2019-05-05T16:16:28.666Z,100212.71
2019-05-05T16:19:27.908Z,100210.35
2019-05-05T16:22:03.763Z,100202.80
2019-05-05T16:24:37.433Z,100208.75
2019-05-05T16:27:19.488Z,100200.25
2019-05-05T16:29:44.493Z,100196.85
2019-05-05T16:32:21.649Z,100204.56
2019-05-05T16:34:50.320Z,100199.08
2019-05-05T16:37:23.596Z,100198.44
2019-05-05T16:39:56.074Z,100194.90
2019-05-05T16:42:28.347Z,100192.31
2019-05-05T16:45:00.224Z,100192.29
2019-05-05T16:47:33.638Z,100198.34
2019-05-05T16:50:06.295Z,100203.23
2019-05-05T16:52:43.486Z,100200.08
2019-05-05T16:55:25.867Z,100202.23
2019-05-05T16:57:57.941Z,100198.33
2019-05-05T17:00:29.867Z,100200.40
2019-05-05T17:03:04.073Z,100202.85
2019-05-05T17:05:35.805Z,100198.91
2019-05-05T17:08:08.074Z,100211.16
2019-05-05T17:10:40.011Z,100208.73
2019-05-05T17:13:21.448Z,100211.73
2019-05-05T17:16:21.224Z,100207.83
2019-05-05T17:19:19.907Z,100213.70
2019-05-05T17:22:10.116Z,100218.49
2019-05-05T17:24:44.026Z,100219.97
2019-05-05T17:27:16.678Z,100222.22
2019-05-05T17:29:48.612Z,100222.27
2019-05-05T17:32:20.929Z,100224.48
2019-05-05T17:34:54.111Z,100224.03
2019-05-05T17:37:26.337Z,100228.58
2019-05-05T17:40:07.162Z,100225.33
2019-05-05T17:43:03.920Z,100237.56
2019-05-05T17:45:55.088Z,100230.95
2019-05-05T17:48:35.587Z,100232.84
2019-05-05T17:51:26.691Z,100238.79
2019-05-05T17:54:16.147Z,100241.26
2019-05-05T17:56:48.531Z,100236.86
2019-05-05T17:59:20.479Z,100240.41
2019-05-05T18:01:54.020Z,100238.92
2019-05-05T18:04:26.136Z,100240.51
2019-05-05T18:07:20.959Z,100246.56
2019-05-05T18:10:14.159Z,100242.78
2019-05-05T18:12:58.282Z,100242.80
2019-05-05T18:15:48.339Z,100247.13
2019-05-05T18:18:20.677Z,100253.05
2019-05-05T18:20:54.261Z,100264.68
2019-05-05T18:23:26.354Z,100262.80
2019-05-05T18:25:58.289Z,100266.33
2019-05-05T18:28:30.506Z,100265.75
2019-05-05T18:31:05.462Z,100267.47
2019-05-05T18:33:36.991Z,100268.45
2019-05-05T18:36:09.695Z,100269.09
2019-05-05T18:38:44.476Z,100274.39
2019-05-05T18:41:23.715Z,100273.09
2019-05-05T18:44:15.126Z,100272.27
2019-05-05T18:46:48.635Z,100273.14
2019-05-05T18:49:23.239Z,100274.11
2019-05-05T18:51:54.825Z,100277.98
2019-05-05T18:54:26.958Z,100275.30
2019-05-05T18:56:58.836Z,100276.61
2019-05-05T18:59:31.288Z,100276.30
2019-05-05T19:02:34.650Z,100274.53
2019-05-05T19:05:25.403Z,100284.19
2019-05-05T19:08:09.350Z,100285.33
2019-05-05T19:10:43.285Z,100286.39
2019-05-05T19:13:14.782Z,100288.91
2019-05-05T19:15:46.974Z,100284.42
2019-05-05T19:18:20.100Z,100290.64
2019-05-05T19:20:57.518Z,100292.80
2019-05-05T19:23:29.473Z,100294.47
2019-05-05T19:26:03.809Z,100292.69
2019-05-05T19:28:44.289Z,100296.23
2019-05-05T19:31:14.070Z,100294.84
2019-05-05T19:33:47.048Z,100297.73
2019-05-05T19:36:19.367Z,100301.09
2019-05-05T19:38:51.324Z,100302.79
2019-05-05T19:41:23.860Z,100302.31
2019-05-05T19:43:56.121Z,100300.42
2019-05-05T19:46:34.752Z,100305.92
2019-05-05T19:49:17.865Z,100309.38
2019-05-05T19:51:50.703Z,100304.42
2019-05-05T19:54:25.823Z,100300.67
2019-05-05T19:56:57.890Z,100307.47
2019-05-05T19:59:29.757Z,100311.39
2019-05-05T20:02:03.631Z,100308.08
2019-05-05T20:04:35.516Z,100306.19
2019-05-05T20:07:07.623Z,100305.61
2019-05-05T20:09:43.402Z,100308.95
2019-05-05T20:12:15.458Z,100309.28
2019-05-05T20:14:47.400Z,100302.63
2019-05-05T20:17:25.419Z,100306.89
2019-05-05T20:19:57.330Z,100307.53
2019-05-05T20:22:29.440Z,100310.88
2019-05-05T20:25:01.407Z,100311.52
2019-05-05T20:27:34.337Z,100313.81
2019-05-05T20:30:08.627Z,100315.84
2019-05-05T20:32:56.059Z,100314.42
2019-05-05T20:35:37.530Z,100319.45
2019-05-05T20:38:14.162Z,100322.23
2019-05-05T20:40:48.743Z,100317.32
2019-05-05T20:43:20.656Z,100318.91
2019-05-05T20:45:53.809Z,100316.53
2019-05-05T20:48:26.046Z,100320.33
2019-05-05T20:50:58.423Z,100318.42
2019-05-05T20:53:30.429Z,100318.34
2019-05-05T20:56:04.330Z,100308.15
2019-05-05T20:58:36.407Z,100313.77
2019-05-05T21:01:08.390Z,100305.95
2019-05-05T21:03:40.315Z,100314.18
2019-05-05T21:06:13.821Z,100320.66
2019-05-05T21:08:45.832Z,100317.00
2019-05-05T21:11:17.699Z,100320.83
2019-05-05T21:13:49.775Z,100315.86
2019-05-05T21:16:23.622Z,100320.00
2019-05-05T21:18:55.534Z,100324.53
2019-05-05T21:21:29.384Z,100333.00
2019-05-05T21:24:04.075Z,100332.67
2019-05-05T21:26:49.268Z,100339.06
2019-05-05T21:29:23.637Z,100339.20
2019-05-05T21:31:55.989Z,100336.98
2019-05-05T21:34:28.265Z,100338.05
2019-05-05T21:37:00.538Z,100337.35
2019-05-05T21:39:34.950Z,100337.97
2019-05-05T21:42:07.343Z,100339.88
2019-05-05T21:44:39.373Z,100345.58
2019-05-05T21:47:11.266Z,100340.94
2019-05-05T21:49:43.307Z,100339.41
2019-05-05T21:52:25.117Z,100333.56
2019-05-05T21:55:16.329Z,100333.27
2019-05-05T21:57:58.851Z,100338.23
2019-05-05T22:00:48.476Z,100334.70
2019-05-05T22:03:27.939Z,100336.69
2019-05-05T22:06:00.513Z,100337.36
2019-05-05T22:08:33.650Z,100338.41
2019-05-05T22:11:09.273Z,100346.77
2019-05-05T22:13:41.051Z,100344.66
2019-05-05T22:16:13.632Z,100346.50
2019-05-05T22:18:46.704Z,100341.86
2019-05-05T22:21:31.321Z,100339.02
2019-05-05T22:24:35.738Z,100336.48
2019-05-05T22:27:07.567Z,100344.45
2019-05-05T22:29:39.375Z,100341.47
2019-05-05T22:32:11.299Z,100347.52
2019-05-05T22:34:44.387Z,100334.62
2019-05-05T22:37:17.904Z,100337.77
2019-05-05T22:39:49.824Z,100333.14
2019-05-05T22:42:21.941Z,100337.66
2019-05-05T22:44:54.353Z,100330.04
2019-05-05T22:47:26.689Z,100337.56
2019-05-05T22:49:58.804Z,100338.66
2019-05-05T22:52:31.019Z,100340.97
2019-05-05T22:55:04.579Z,100337.25
2019-05-05T22:57:36.466Z,100341.89
2019-05-05T23:00:25.733Z,100346.73
2019-05-05T23:02:54.921Z,100345.63
2019-05-05T23:05:39.513Z,100346.28
2019-05-05T23:08:13.556Z,100344.22
2019-05-05T23:10:45.613Z,100346.61
2019-05-05T23:13:17.730Z,100361.09
2019-05-05T23:15:57.098Z,100351.89
2019-05-05T23:18:29.289Z,100349.58
2019-05-05T23:21:34.167Z,100345.02
2019-05-05T23:24:27.764Z,100345.55
2019-05-05T23:26:59.676Z,100334.85
2019-05-05T23:29:31.509Z,100350.94
2019-05-05T23:32:03.350Z,100348.52
2019-05-05T23:34:35.274Z,100345.67
2019-05-05T23:37:08.182Z,100348.14
2019-05-05T23:39:39.998Z,100349.16
2019-05-05T23:42:11.767Z,100357.09
2019-05-05T23:44:43.884Z,100350.39
2019-05-05T23:47:15.713Z,100354.53
2019-05-05T23:49:47.812Z,100360.32
2019-05-05T23:52:19.579Z,100356.94
2019-05-05T23:54:51.941Z,100352.89
2019-05-05T23:57:24.571Z,100355.30
2019-05-05T23:59:57.811Z,100352.92
